This is the latest recevied weather packets stored in our database for station/object IA5KRO-13. If no packets are shown the sender has not sent any weather packets the latest 10 day(s).
| Time | Temp. | Humidity | Pressure | Rain* | Wind** | Luminosity | Snow |
|---|---|---|---|---|---|---|---|
| 1777915510 | 17.22° C | 85% | 1023.7 hPa | 0 mm | - | - | - |
| 1777908909 | 17.78° C | 76% | 1024.4 hPa | 0 mm | - | - | - |
| 1777908624 | 17.78° C | 76% | 1024.4 hPa | 0 mm | - | - | - |
| 1777906833 | 18.89° C | 73% | 1024.4 hPa | 0 mm | - | - | - |
| 1777905613 | 18.89° C | 72% | 1024.7 hPa | 0 mm | - | - | - |
| 1777905309 | 18.89° C | 72% | 1024.4 hPa | 0 mm | - | - | - |
| 1777901709 | 18.89° C | 71% | 1025.1 hPa | 0 mm | - | - | - |
| 1777901424 | 18.89° C | 72% | 1025.1 hPa | 0 mm | - | - | - |
| 1777901110 | 18.89° C | 72% | 1025.1 hPa | 0 mm | - | - | - |
| 1777900813 | 18.89° C | 72% | 1025.4 hPa | 0 mm | - | - | - |
| 1777900513 | 17.78° C | 73% | 1025.4 hPa | 0 mm | - | - | - |
| 1777898413 | 17.78° C | 73% | 1025.4 hPa | 0 mm | - | - | - |
| 1777898110 | 18.89° C | 72% | 1025.4 hPa | 0 mm | - | - | - |
| 1777897824 | 18.89° C | 71% | 1025.4 hPa | 0 mm | - | - | - |
| 1777897510 | 18.89° C | 70% | 1025.4 hPa | 0 mm | - | - | - |
| 1777897213 | 18.89° C | 67% | 1025.4 hPa | 0 mm | - | - | - |
| 1777896912 | 18.89° C | 69% | 1025.4 hPa | 0 mm | - | - | - |
| 1777896613 | 18.89° C | 69% | 1025.4 hPa | 0 mm | - | - | - |
| 1777896310 | 18.89° C | 69% | 1025.4 hPa | 0 mm | - | - | - |
| 1777896032 | 18.89° C | 68% | 1025.4 hPa | 0 mm | - | - | - |
| 1777895709 | 18.89° C | 67% | 1025.4 hPa | 0 mm | - | - | - |
| 1777895113 | 18.89° C | 66% | 1025.4 hPa | 0 mm | - | - | - |
| 1777894222 | 18.89° C | 63% | 1025.4 hPa | 0 mm | - | - | - |
| 1777893909 | 18.89° C | 64% | 1025.4 hPa | 0 mm | - | - | - |
| 1777893613 | 18.89° C | 64% | 1025.7 hPa | 0 mm | - | - | - |
* Rain latest hour (hover to see other rain measurements)
** Current wind speed in m/s (hover to see current wind gust speed)